sensor_id;sensor_type;location;lat;lon;timestamp;pressure;altitude;pressure_sealevel;temperature;humidity
75815;BME280;64451;45.574;14.224;2023-02-28T00:01:22;97361.50;;;0.62;67.20
75815;BME280;64451;45.574;14.224;2023-02-28T00:03:22;97364.28;;;0.73;65.73
75815;BME280;64451;45.574;14.224;2023-02-28T00:05:24;97363.69;;;0.71;65.49
75815;BME280;64451;45.574;14.224;2023-02-28T00:07:34;97370.06;;;0.64;66.76
75815;BME280;64451;45.574;14.224;2023-02-28T00:09:44;97370.69;;;0.59;65.90
75815;BME280;64451;45.574;14.224;2023-02-28T00:11:50;97366.44;;;0.58;66.47
75815;BME280;64451;45.574;14.224;2023-02-28T00:13:51;97369.00;;;0.71;64.97
75815;BME280;64451;45.574;14.224;2023-02-28T00:16:11;97363.25;;;0.74;64.99
75815;BME280;64451;45.574;14.224;2023-02-28T00:18:28;97370.06;;;0.57;66.07
75815;BME280;64451;45.574;14.224;2023-02-28T00:24:44;97370.50;;;0.54;66.35
75815;BME280;64451;45.574;14.224;2023-02-28T00:26:44;97370.06;;;0.64;65.90
75815;BME280;64451;45.574;14.224;2023-02-28T00:28:54;97368.22;;;0.64;66.19
75815;BME280;64451;45.574;14.224;2023-02-28T00:31:00;97379.00;;;0.69;66.23
75815;BME280;64451;45.574;14.224;2023-02-28T00:33:00;97378.16;;;0.75;64.76
75815;BME280;64451;45.574;14.224;2023-02-28T00:35:09;97371.84;;;0.70;65.31
75815;BME280;64451;45.574;14.224;2023-02-28T00:37:10;97370.69;;;0.59;66.59
75815;BME280;64451;45.574;14.224;2023-02-28T00:39:23;97371.66;;;0.65;65.68
75815;BME280;64451;45.574;14.224;2023-02-28T00:41:26;97374.47;;;0.76;65.63
75815;BME280;64451;45.574;14.224;2023-02-28T00:43:26;97363.91;;;0.70;65.57
75815;BME280;64451;45.574;14.224;2023-02-28T00:45:35;97367.63;;;0.62;65.25
75815;BME280;64451;45.574;14.224;2023-02-28T00:47:36;97371.28;;;0.61;65.33
75815;BME280;64451;45.574;14.224;2023-02-28T00:49:42;97365.56;;;0.64;65.78
75815;BME280;64451;45.574;14.224;2023-02-28T00:51:54;97373.47;;;0.71;65.04
75815;BME280;64451;45.574;14.224;2023-02-28T00:53:55;97373.69;;;0.69;65.98
75815;BME280;64451;45.574;14.224;2023-02-28T00:55:55;97377.38;;;0.68;65.32
75815;BME280;64451;45.574;14.224;2023-02-28T00:58:02;97384.44;;;0.74;65.40
75815;BME280;64451;45.574;14.224;2023-02-28T01:00:11;97382.66;;;0.75;65.31
75815;BME280;64451;45.574;14.224;2023-02-28T01:02:24;97377.72;;;0.78;65.30
75815;BME280;64451;45.574;14.224;2023-02-28T01:04:27;97386.91;;;0.76;65.20
75815;BME280;64451;45.574;14.224;2023-02-28T01:06:48;97387.31;;;0.73;64.86
75815;BME280;64451;45.574;14.224;2023-02-28T01:08:52;97381.41;;;0.77;65.28
75815;BME280;64451;45.574;14.224;2023-02-28T01:10:52;97378.53;;;0.79;65.20
75815;BME280;64451;45.574;14.224;2023-02-28T01:12:53;97376.13;;;0.71;65.72
75815;BME280;64451;45.574;14.224;2023-02-28T01:14:56;97390.19;;;0.71;65.28
75815;BME280;64451;45.574;14.224;2023-02-28T01:16:59;97376.16;;;0.64;65.31
75815;BME280;64451;45.574;14.224;2023-02-28T01:18:59;97379.25;;;0.61;66.12
75815;BME280;64451;45.574;14.224;2023-02-28T01:21:12;97379.00;;;0.69;65.93
75815;BME280;64451;45.574;14.224;2023-02-28T01:23:13;97372.84;;;0.75;65.64
75815;BME280;64451;45.574;14.224;2023-02-28T01:25:22;97382.81;;;0.80;64.90
75815;BME280;64451;45.574;14.224;2023-02-28T01:27:23;97375.44;;;0.82;64.81
75815;BME280;64451;45.574;14.224;2023-02-28T01:29:29;97380.13;;;0.87;65.10
75815;BME280;64451;45.574;14.224;2023-02-28T01:31:41;97384.16;;;0.89;65.76
75815;BME280;64451;45.574;14.224;2023-02-28T01:33:42;97381.63;;;0.76;67.03
75815;BME280;64451;45.574;14.224;2023-02-28T01:35:42;97383.06;;;0.65;67.15
75815;BME280;64451;45.574;14.224;2023-02-28T01:37:42;97384.53;;;0.61;66.79
75815;BME280;64451;45.574;14.224;2023-02-28T01:39:43;97389.63;;;0.63;67.98
75815;BME280;64451;45.574;14.224;2023-02-28T01:41:44;97392.28;;;0.56;68.51
75815;BME280;64451;45.574;14.224;2023-02-28T01:46:06;97382.25;;;0.65;69.20
75815;BME280;64451;45.574;14.224;2023-02-28T01:48:08;97384.38;;;0.49;69.61
75815;BME280;64451;45.574;14.224;2023-02-28T01:50:24;97388.25;;;0.47;69.25
75815;BME280;64451;45.574;14.224;2023-02-28T01:52:41;97389.03;;;0.54;69.96
75815;BME280;64451;45.574;14.224;2023-02-28T01:54:56;97386.41;;;0.47;70.39
75815;BME280;64451;45.574;14.224;2023-02-28T01:57:01;97380.41;;;0.72;70.40
75815;BME280;64451;45.574;14.224;2023-02-28T01:59:27;97385.22;;;0.81;69.52
75815;BME280;64451;45.574;14.224;2023-02-28T02:01:35;97377.47;;;0.87;69.14
75815;BME280;64451;45.574;14.224;2023-02-28T02:03:42;97384.72;;;0.98;67.07
75815;BME280;64451;45.574;14.224;2023-02-28T02:05:42;97377.47;;;0.87;66.29
75815;BME280;64451;45.574;14.224;2023-02-28T02:10:27;97373.78;;;0.88;65.33
75815;BME280;64451;45.574;14.224;2023-02-28T02:15:15;97375.59;;;0.94;65.48
75815;BME280;64451;45.574;14.224;2023-02-28T02:17:44;97376.41;;;0.94;65.18
75815;BME280;64451;45.574;14.224;2023-02-28T02:37:25;97396.41;;;0.45;70.97
75815;BME280;64451;45.574;14.224;2023-02-28T02:40:17;97396.63;;;0.50;71.41
75815;BME280;64451;45.574;14.224;2023-02-28T02:42:32;97392.03;;;0.71;70.35
75815;BME280;64451;45.574;14.224;2023-02-28T02:44:55;97384.19;;;0.82;69.38
75815;BME280;64451;45.574;14.224;2023-02-28T02:47:28;97378.50;;;0.86;68.89
75815;BME280;64451;45.574;14.224;2023-02-28T02:49:34;97382.94;;;0.92;69.38
75815;BME280;64451;45.574;14.224;2023-02-28T02:51:54;97374.63;;;0.81;69.57
75815;BME280;64451;45.574;14.224;2023-02-28T02:56:39;97358.56;;;0.83;68.34
75815;BME280;64451;45.574;14.224;2023-02-28T02:58:42;97360.81;;;0.73;68.43
75815;BME280;64451;45.574;14.224;2023-02-28T03:00:45;97358.28;;;0.60;69.22
75815;BME280;64451;45.574;14.224;2023-02-28T03:02:47;97354.81;;;0.59;69.58
75815;BME280;64451;45.574;14.224;2023-02-28T03:04:52;97353.03;;;0.46;68.52
75815;BME280;64451;45.574;14.224;2023-02-28T03:06:54;97349.97;;;0.81;67.20
75815;BME280;64451;45.574;14.224;2023-02-28T03:08:55;97357.06;;;0.94;66.70
75815;BME280;64451;45.574;14.224;2023-02-28T03:10:57;97349.13;;;0.87;66.52
75815;BME280;64451;45.574;14.224;2023-02-28T03:13:10;97346.19;;;1.02;65.75
75815;BME280;64451;45.574;14.224;2023-02-28T03:15:21;97349.50;;;0.91;67.10
75815;BME280;64451;45.574;14.224;2023-02-28T03:17:40;97356.09;;;0.81;68.28
75815;BME280;64451;45.574;14.224;2023-02-28T03:22:31;97348.13;;;1.13;66.26
75815;BME280;64451;45.574;14.224;2023-02-28T03:27:42;97350.16;;;1.18;65.67
75815;BME280;64451;45.574;14.224;2023-02-28T03:29:39;97339.88;;;1.28;66.00
75815;BME280;64451;45.574;14.224;2023-02-28T03:31:48;97343.81;;;1.19;66.62
75815;BME280;64451;45.574;14.224;2023-02-28T03:33:57;97341.81;;;0.82;68.14
75815;BME280;64451;45.574;14.224;2023-02-28T03:36:14;97341.13;;;0.62;69.12
75815;BME280;64451;45.574;14.224;2023-02-28T03:38:28;97341.34;;;0.61;70.41
75815;BME280;64451;45.574;14.224;2023-02-28T03:40:32;97356.69;;;0.52;70.86
75815;BME280;64451;45.574;14.224;2023-02-28T03:42:36;97354.66;;;0.47;71.54
75815;BME280;64451;45.574;14.224;2023-02-28T03:44:48;97355.47;;;0.48;71.15
75815;BME280;64451;45.574;14.224;2023-02-28T03:47:04;97356.84;;;0.57;71.30
75815;BME280;64451;45.574;14.224;2023-02-28T03:49:22;97352.84;;;0.41;70.41
75815;BME280;64451;45.574;14.224;2023-02-28T03:51:27;97359.22;;;0.34;70.80
75815;BME280;64451;45.574;14.224;2023-02-28T03:53:33;97356.97;;;0.31;70.24
75815;BME280;64451;45.574;14.224;2023-02-28T03:55:40;97358.41;;;0.26;70.82
75815;BME280;64451;45.574;14.224;2023-02-28T03:58:05;97366.31;;;0.33;71.04
75815;BME280;64451;45.574;14.224;2023-02-28T04:00:21;97370.78;;;0.33;71.90
75815;BME280;64451;45.574;14.224;2023-02-28T04:02:34;97362.25;;;0.31;71.61
75815;BME280;64451;45.574;14.224;2023-02-28T04:04:34;97369.00;;;0.26;70.49
75815;BME280;64451;45.574;14.224;2023-02-28T04:06:35;97368.56;;;0.36;70.65
75815;BME280;64451;45.574;14.224;2023-02-28T04:08:36;97361.84;;;0.34;70.96
75815;BME280;64451;45.574;14.224;2023-02-28T04:10:36;97369.97;;;0.32;69.89
75815;BME280;64451;45.574;14.224;2023-02-28T04:12:36;97371.22;;;0.30;70.41
75815;BME280;64451;45.574;14.224;2023-02-28T04:14:37;97366.53;;;0.32;70.42
75815;BME280;64451;45.574;14.224;2023-02-28T04:16:39;97372.22;;;0.42;71.84
75815;BME280;64451;45.574;14.224;2023-02-28T04:18:41;97370.41;;;0.36;71.61
75815;BME280;64451;45.574;14.224;2023-02-28T04:20:45;97380.63;;;0.25;71.59
75815;BME280;64451;45.574;14.224;2023-02-28T04:22:45;97373.94;;;0.10;71.92
75815;BME280;64451;45.574;14.224;2023-02-28T04:24:45;97371.88;;;0.25;71.56
75815;BME280;64451;45.574;14.224;2023-02-28T04:26:48;97366.47;;;0.45;71.53
75815;BME280;64451;45.574;14.224;2023-02-28T04:28:48;97361.22;;;0.32;71.46
75815;BME280;64451;45.574;14.224;2023-02-28T04:31:03;97366.84;;;-0.03;72.29
75815;BME280;64451;45.574;14.224;2023-02-28T04:33:03;97367.66;;;-0.09;72.73
75815;BME280;64451;45.574;14.224;2023-02-28T04:35:04;97369.94;;;-0.13;72.63
75815;BME280;64451;45.574;14.224;2023-02-28T04:37:05;97379.31;;;-0.37;73.41
75815;BME280;64451;45.574;14.224;2023-02-28T04:39:05;97379.53;;;-0.51;74.18
75815;BME280;64451;45.574;14.224;2023-02-28T04:41:06;97367.53;;;-0.41;74.38
75815;BME280;64451;45.574;14.224;2023-02-28T04:43:06;97373.00;;;-0.22;73.59
75815;BME280;64451;45.574;14.224;2023-02-28T04:45:07;97371.41;;;-0.57;74.46
75815;BME280;64451;45.574;14.224;2023-02-28T04:47:10;97382.59;;;-0.41;75.06
75815;BME280;64451;45.574;14.224;2023-02-28T04:49:13;97371.59;;;-0.51;75.06
75815;BME280;64451;45.574;14.224;2023-02-28T04:51:15;97381.97;;;-0.90;76.54
75815;BME280;64451;45.574;14.224;2023-02-28T04:53:17;97380.47;;;-1.38;78.79
75815;BME280;64451;45.574;14.224;2023-02-28T04:55:17;97378.00;;;-1.47;79.36
75815;BME280;64451;45.574;14.224;2023-02-28T04:57:17;97375.22;;;-1.32;80.34
75815;BME280;64451;45.574;14.224;2023-02-28T04:59:18;97369.09;;;-1.26;79.84
75815;BME280;64451;45.574;14.224;2023-02-28T05:01:21;97368.28;;;-1.26;79.93
75815;BME280;64451;45.574;14.224;2023-02-28T05:03:22;97370.09;;;-1.47;81.24
75815;BME280;64451;45.574;14.224;2023-02-28T05:05:22;97370.78;;;-1.79;82.59
75815;BME280;64451;45.574;14.224;2023-02-28T05:07:23;97371.69;;;-2.00;83.39
75815;BME280;64451;45.574;14.224;2023-02-28T05:09:23;97374.88;;;-2.11;84.53
75815;BME280;64451;45.574;14.224;2023-02-28T05:11:30;97374.75;;;-1.96;84.76
75815;BME280;64451;45.574;14.224;2023-02-28T05:13:34;97390.00;;;-2.27;86.24
75815;BME280;64451;45.574;14.224;2023-02-28T05:15:35;97381.13;;;-2.19;84.95
75815;BME280;64451;45.574;14.224;2023-02-28T05:17:36;97390.78;;;-2.61;86.35
75815;BME280;64451;45.574;14.224;2023-02-28T05:19:36;97403.81;;;-2.74;87.39
75815;BME280;64451;45.574;14.224;2023-02-28T05:21:39;97400.63;;;-2.91;88.32
75815;BME280;64451;45.574;14.224;2023-02-28T05:23:40;97394.69;;;-2.78;87.26
75815;BME280;64451;45.574;14.224;2023-02-28T05:25:40;97411.16;;;-2.69;87.42
75815;BME280;64451;45.574;14.224;2023-02-28T05:27:44;97404.50;;;-2.65;88.23
75815;BME280;64451;45.574;14.224;2023-02-28T05:29:45;97395.28;;;-2.55;87.81
75815;BME280;64451;45.574;14.224;2023-02-28T05:31:45;97407.78;;;-2.63;88.19
75815;BME280;64451;45.574;14.224;2023-02-28T05:33:46;97413.06;;;-2.57;88.21
75815;BME280;64451;45.574;14.224;2023-02-28T05:35:47;97417.41;;;-2.21;86.05
75815;BME280;64451;45.574;14.224;2023-02-28T05:37:53;97408.50;;;-2.20;85.35
75815;BME280;64451;45.574;14.224;2023-02-28T05:39:56;97415.09;;;-2.03;84.57
75815;BME280;64451;45.574;14.224;2023-02-28T05:42:02;97415.94;;;-1.95;83.62
75815;BME280;64451;45.574;14.224;2023-02-28T05:44:03;97419.75;;;-2.05;83.74
75815;BME280;64451;45.574;14.224;2023-02-28T05:46:05;97416.41;;;-2.20;84.26
75815;BME280;64451;45.574;14.224;2023-02-28T05:48:05;97416.72;;;-2.02;83.22
75815;BME280;64451;45.574;14.224;2023-02-28T05:50:06;97426.66;;;-2.04;83.49
75815;BME280;64451;45.574;14.224;2023-02-28T05:52:07;97426.69;;;-2.25;84.47
75815;BME280;64451;45.574;14.224;2023-02-28T05:54:07;97435.25;;;-2.23;84.30
75815;BME280;64451;45.574;14.224;2023-02-28T05:56:07;97440.47;;;-2.30;84.38
75815;BME280;64451;45.574;14.224;2023-02-28T05:58:08;97444.72;;;-2.29;84.43
75815;BME280;64451;45.574;14.224;2023-02-28T06:00:09;97432.38;;;-2.28;84.33
75815;BME280;64451;45.574;14.224;2023-02-28T06:02:12;97440.13;;;-2.48;85.02
75815;BME280;64451;45.574;14.224;2023-02-28T06:04:14;97442.72;;;-2.76;86.02
75815;BME280;64451;45.574;14.224;2023-02-28T06:06:17;97444.88;;;-2.37;85.20
75815;BME280;64451;45.574;14.224;2023-02-28T06:08:18;97449.81;;;-2.27;85.16
75815;BME280;64451;45.574;14.224;2023-02-28T06:10:19;97450.69;;;-2.41;84.93
75815;BME280;64451;45.574;14.224;2023-02-28T06:12:22;97448.94;;;-2.62;86.04
75815;BME280;64451;45.574;14.224;2023-02-28T06:14:23;97455.13;;;-2.91;87.13
75815;BME280;64451;45.574;14.224;2023-02-28T06:16:23;97462.09;;;-3.05;86.89
75815;BME280;64451;45.574;14.224;2023-02-28T06:21:28;97455.19;;;-2.85;88.85
75815;BME280;64451;45.574;14.224;2023-02-28T06:23:29;97460.22;;;-2.68;88.53
75815;BME280;64451;45.574;14.224;2023-02-28T06:26:03;97464.41;;;-2.24;86.73
75815;BME280;64451;45.574;14.224;2023-02-28T06:28:17;97456.56;;;-2.18;84.88
75815;BME280;64451;45.574;14.224;2023-02-28T06:33:49;97470.78;;;-2.40;85.62
75815;BME280;64451;45.574;14.224;2023-02-28T06:35:53;97473.13;;;-2.52;85.91
75815;BME280;64451;45.574;14.224;2023-02-28T06:38:32;97469.88;;;-2.54;87.30
75815;BME280;64451;45.574;14.224;2023-02-28T06:40:49;97473.19;;;-2.45;87.25
75815;BME280;64451;45.574;14.224;2023-02-28T06:43:02;97474.53;;;-2.28;86.93
75815;BME280;64451;45.574;14.224;2023-02-28T06:45:05;97483.06;;;-2.26;85.75
75815;BME280;64451;45.574;14.224;2023-02-28T06:47:11;97477.22;;;-1.93;84.18
75815;BME280;64451;45.574;14.224;2023-02-28T07:01:37;97488.75;;;-0.38;78.05
75815;BME280;64451;45.574;14.224;2023-02-28T07:04:07;97488.16;;;-0.13;76.92
75815;BME280;64451;45.574;14.224;2023-02-28T07:06:14;97487.09;;;0.14;76.05
75815;BME280;64451;45.574;14.224;2023-02-28T07:10:40;97477.47;;;0.40;75.08
75815;BME280;64451;45.574;14.224;2023-02-28T07:17:50;97484.31;;;1.19;69.32
75815;BME280;64451;45.574;14.224;2023-02-28T07:20:16;97482.03;;;1.22;69.46
75815;BME280;64451;45.574;14.224;2023-02-28T07:22:46;97485.22;;;1.94;67.79
75815;BME280;64451;45.574;14.224;2023-02-28T07:24:54;97480.97;;;2.36;66.93
75815;BME280;64451;45.574;14.224;2023-02-28T07:26:54;97479.13;;;2.92;67.22
75815;BME280;64451;45.574;14.224;2023-02-28T07:28:55;97490.88;;;2.22;66.22
75815;BME280;64451;45.574;14.224;2023-02-28T07:30:55;97481.53;;;1.70;68.52
75815;BME280;64451;45.574;14.224;2023-02-28T07:32:58;97479.44;;;2.22;68.07
75815;BME280;64451;45.574;14.224;2023-02-28T07:35:11;97489.81;;;2.05;68.55
75815;BME280;64451;45.574;14.224;2023-02-28T07:37:11;97480.91;;;2.43;65.98
75815;BME280;64451;45.574;14.224;2023-02-28T07:39:12;97484.88;;;1.90;68.41
75815;BME280;64451;45.574;14.224;2023-02-28T07:41:12;97487.06;;;2.18;68.68
75815;BME280;64451;45.574;14.224;2023-02-28T07:43:13;97484.81;;;2.40;66.19
75815;BME280;64451;45.574;14.224;2023-02-28T07:45:13;97478.97;;;2.87;64.85
75815;BME280;64451;45.574;14.224;2023-02-28T07:47:13;97491.84;;;3.20;65.86
75815;BME280;64451;45.574;14.224;2023-02-28T07:49:20;97490.41;;;2.69;65.56
75815;BME280;64451;45.574;14.224;2023-02-28T07:51:23;97498.72;;;3.39;62.58
75815;BME280;64451;45.574;14.224;2023-02-28T07:53:27;97493.78;;;3.84;62.74
75815;BME280;64451;45.574;14.224;2023-02-28T07:55:28;97495.13;;;4.40;61.99
75815;BME280;64451;45.574;14.224;2023-02-28T07:57:34;97497.53;;;4.42;58.94
75815;BME280;64451;45.574;14.224;2023-02-28T07:59:40;97492.09;;;4.48;58.54
75815;BME280;64451;45.574;14.224;2023-02-28T08:01:41;97491.75;;;4.57;59.02
75815;BME280;64451;45.574;14.224;2023-02-28T08:03:50;97498.06;;;4.79;57.41
75815;BME280;64451;45.574;14.224;2023-02-28T08:05:51;97488.47;;;5.18;54.14
75815;BME280;64451;45.574;14.224;2023-02-28T08:07:52;97477.94;;;5.12;53.10
75815;BME280;64451;45.574;14.224;2023-02-28T08:09:53;97494.47;;;4.97;54.29
75815;BME280;64451;45.574;14.224;2023-02-28T08:12:06;97482.13;;;4.56;55.32
75815;BME280;64451;45.574;14.224;2023-02-28T08:14:10;97489.41;;;4.60;57.06
75815;BME280;64451;45.574;14.224;2023-02-28T08:16:11;97492.44;;;4.64;55.70
75815;BME280;64451;45.574;14.224;2023-02-28T08:18:15;97493.47;;;4.28;56.22
75815;BME280;64451;45.574;14.224;2023-02-28T08:20:15;97498.53;;;3.94;56.79
75815;BME280;64451;45.574;14.224;2023-02-28T08:22:18;97496.69;;;3.83;57.26
75815;BME280;64451;45.574;14.224;2023-02-28T08:24:18;97495.34;;;4.15;58.16
75815;BME280;64451;45.574;14.224;2023-02-28T08:26:20;97492.75;;;4.67;54.14
75815;BME280;64451;45.574;14.224;2023-02-28T08:31:40;97488.41;;;5.58;51.58
75815;BME280;64451;45.574;14.224;2023-02-28T08:33:53;97492.94;;;5.01;51.94
75815;BME280;64451;45.574;14.224;2023-02-28T08:35:56;97485.47;;;5.72;51.45
75815;BME280;64451;45.574;14.224;2023-02-28T08:38:05;97493.03;;;6.08;50.38
75815;BME280;64451;45.574;14.224;2023-02-28T08:40:24;97485.25;;;6.07;51.16
75815;BME280;64451;45.574;14.224;2023-02-28T08:42:25;97491.16;;;6.26;51.82
75815;BME280;64451;45.574;14.224;2023-02-28T08:44:34;97493.13;;;6.13;50.74
75815;BME280;64451;45.574;14.224;2023-02-28T08:46:44;97497.25;;;6.38;50.37
75815;BME280;64451;45.574;14.224;2023-02-28T08:49:15;97500.06;;;5.98;51.05
75815;BME280;64451;45.574;14.224;2023-02-28T08:51:41;97501.19;;;6.02;53.57
75815;BME280;64451;45.574;14.224;2023-02-28T08:53:45;97504.69;;;6.19;50.08
75815;BME280;64451;45.574;14.224;2023-02-28T08:56:02;97493.03;;;6.08;51.01
75815;BME280;64451;45.574;14.224;2023-02-28T08:58:02;97495.53;;;6.15;49.48
75815;BME280;64451;45.574;14.224;2023-02-28T09:00:09;97505.16;;;5.99;50.63
75815;BME280;64451;45.574;14.224;2023-02-28T09:02:14;97504.28;;;5.94;51.30
75815;BME280;64451;45.574;14.224;2023-02-28T09:04:15;97499.97;;;5.93;50.58
75815;BME280;64451;45.574;14.224;2023-02-28T09:06:18;97498.63;;;5.78;50.19
75815;BME280;64451;45.574;14.224;2023-02-28T09:08:34;97494.00;;;6.19;52.61
75815;BME280;64451;45.574;14.224;2023-02-28T09:10:34;97497.72;;;6.18;49.73
75815;BME280;64451;45.574;14.224;2023-02-28T09:13:03;97483.78;;;6.16;51.33
75815;BME280;64451;45.574;14.224;2023-02-28T09:15:11;97495.78;;;5.68;52.27
75815;BME280;64451;45.574;14.224;2023-02-28T09:17:11;97491.47;;;5.50;51.13
75815;BME280;64451;45.574;14.224;2023-02-28T09:19:12;97497.94;;;5.54;52.27
75815;BME280;64451;45.574;14.224;2023-02-28T09:21:18;97493.88;;;5.80;53.07
75815;BME280;64451;45.574;14.224;2023-02-28T09:23:25;97490.47;;;5.85;52.24
75815;BME280;64451;45.574;14.224;2023-02-28T09:25:26;97494.00;;;5.57;52.24
75815;BME280;64451;45.574;14.224;2023-02-28T09:27:26;97490.41;;;5.80;52.76
75815;BME280;64451;45.574;14.224;2023-02-28T09:29:27;97497.88;;;6.28;53.30
75815;BME280;64451;45.574;14.224;2023-02-28T09:34:20;97490.44;;;6.13;51.92
75815;BME280;64451;45.574;14.224;2023-02-28T09:36:54;97489.66;;;5.84;51.11
75815;BME280;64451;45.574;14.224;2023-02-28T09:38:55;97490.25;;;6.03;51.34
75815;BME280;64451;45.574;14.224;2023-02-28T09:40:58;97482.13;;;5.64;52.79
75815;BME280;64451;45.574;14.224;2023-02-28T09:42:59;97481.13;;;5.54;51.75
75815;BME280;64451;45.574;14.224;2023-02-28T09:45:02;97485.00;;;5.46;53.62
75815;BME280;64451;45.574;14.224;2023-02-28T09:47:39;97486.06;;;5.62;53.83
75815;BME280;64451;45.574;14.224;2023-02-28T09:49:44;97485.28;;;5.78;53.65
75815;BME280;64451;45.574;14.224;2023-02-28T09:52:04;97484.75;;;6.27;53.09
75815;BME280;64451;45.574;14.224;2023-02-28T09:54:06;97487.19;;;6.11;51.68
75815;BME280;64451;45.574;14.224;2023-02-28T09:56:21;97480.63;;;6.02;53.77
75815;BME280;64451;45.574;14.224;2023-02-28T09:58:33;97486.38;;;6.11;51.39
75815;BME280;64451;45.574;14.224;2023-02-28T10:00:44;97481.91;;;6.33;52.28
75815;BME280;64451;45.574;14.224;2023-02-28T10:05:23;97483.25;;;5.85;53.02
75815;BME280;64451;45.574;14.224;2023-02-28T10:10:06;97479.22;;;5.66;54.43
75815;BME280;64451;45.574;14.224;2023-02-28T10:12:15;97482.53;;;5.73;52.21
75815;BME280;64451;45.574;14.224;2023-02-28T10:14:18;97483.94;;;6.09;51.61
75815;BME280;64451;45.574;14.224;2023-02-28T10:16:25;97474.78;;;5.88;51.75
75815;BME280;64451;45.574;14.224;2023-02-28T10:18:38;97471.31;;;5.88;54.63
75815;BME280;64451;45.574;14.224;2023-02-28T10:20:50;97479.34;;;6.22;52.26
75815;BME280;64451;45.574;14.224;2023-02-28T10:23:12;97469.84;;;6.47;50.00
75815;BME280;64451;45.574;14.224;2023-02-28T10:25:20;97479.47;;;6.48;51.36
75815;BME280;64451;45.574;14.224;2023-02-28T10:27:29;97484.75;;;6.10;51.50
75815;BME280;64451;45.574;14.224;2023-02-28T10:29:32;97477.66;;;6.15;51.31
75815;BME280;64451;45.574;14.224;2023-02-28T10:31:33;97476.50;;;5.95;53.32
75815;BME280;64451;45.574;14.224;2023-02-28T10:33:34;97482.44;;;5.68;54.09
75815;BME280;64451;45.574;14.224;2023-02-28T10:35:35;97477.09;;;5.68;54.50
75815;BME280;64451;45.574;14.224;2023-02-28T10:37:39;97478.47;;;5.71;53.75
75815;BME280;64451;45.574;14.224;2023-02-28T10:39:45;97481.50;;;5.46;54.56
75815;BME280;64451;45.574;14.224;2023-02-28T10:41:51;97473.41;;;5.41;55.61
75815;BME280;64451;45.574;14.224;2023-02-28T10:43:51;97470.69;;;5.98;54.67
75815;BME280;64451;45.574;14.224;2023-02-28T10:46:15;97481.78;;;6.23;52.48
75815;BME280;64451;45.574;14.224;2023-02-28T10:50:44;97471.91;;;6.84;48.97
75815;BME280;64451;45.574;14.224;2023-02-28T10:52:48;97471.16;;;7.11;51.56
75815;BME280;64451;45.574;14.224;2023-02-28T10:54:48;97465.38;;;6.75;51.02
75815;BME280;64451;45.574;14.224;2023-02-28T10:57:06;97463.19;;;6.50;52.51
75815;BME280;64451;45.574;14.224;2023-02-28T11:01:14;97447.81;;;6.40;52.83
75815;BME280;64451;45.574;14.224;2023-02-28T11:03:34;97453.09;;;6.18;55.29
75815;BME280;64451;45.574;14.224;2023-02-28T11:05:36;97450.22;;;6.42;53.20
75815;BME280;64451;45.574;14.224;2023-02-28T11:07:37;97456.19;;;6.66;52.75
75815;BME280;64451;45.574;14.224;2023-02-28T11:09:40;97446.72;;;6.58;52.49
75815;BME280;64451;45.574;14.224;2023-02-28T11:11:43;97436.28;;;6.79;52.15
75815;BME280;64451;45.574;14.224;2023-02-28T11:13:46;97443.81;;;6.82;51.64
75815;BME280;64451;45.574;14.224;2023-02-28T11:15:53;97431.16;;;6.77;50.36
75815;BME280;64451;45.574;14.224;2023-02-28T11:17:57;97438.72;;;6.41;53.26
75815;BME280;64451;45.574;14.224;2023-02-28T11:20:04;97442.06;;;6.92;53.30
75815;BME280;64451;45.574;14.224;2023-02-28T11:22:07;97427.25;;;6.85;51.22
75815;BME280;64451;45.574;14.224;2023-02-28T11:24:24;97425.81;;;6.16;52.37
75815;BME280;64451;45.574;14.224;2023-02-28T11:26:44;97433.66;;;5.89;52.86
75815;BME280;64451;45.574;14.224;2023-02-28T11:29:03;97423.38;;;5.64;54.33
75815;BME280;64451;45.574;14.224;2023-02-28T11:33:29;97430.56;;;5.47;54.05
75815;BME280;64451;45.574;14.224;2023-02-28T11:38:22;97420.63;;;5.76;54.19
75815;BME280;64451;45.574;14.224;2023-02-28T11:45:49;97412.53;;;5.88;53.68
75815;BME280;64451;45.574;14.224;2023-02-28T11:48:23;97413.00;;;5.68;53.79
75815;BME280;64451;45.574;14.224;2023-02-28T11:51:10;97410.34;;;5.85;54.02
75815;BME280;64451;45.574;14.224;2023-02-28T11:56:12;97409.22;;;5.81;53.35
75815;BME280;64451;45.574;14.224;2023-02-28T12:02:57;97406.38;;;5.87;53.70
75815;BME280;64451;45.574;14.224;2023-02-28T12:05:25;97398.53;;;6.14;53.78
75815;BME280;64451;45.574;14.224;2023-02-28T12:07:38;97402.03;;;5.64;54.34
75815;BME280;64451;45.574;14.224;2023-02-28T12:16:59;97395.09;;;6.19;54.24
75815;BME280;64451;45.574;14.224;2023-02-28T12:19:11;97396.56;;;6.27;53.81
75815;BME280;64451;45.574;14.224;2023-02-28T12:28:22;97398.41;;;6.65;50.50
75815;BME280;64451;45.574;14.224;2023-02-28T12:30:26;97409.59;;;6.84;51.27
75815;BME280;64451;45.574;14.224;2023-02-28T12:32:34;97393.84;;;6.65;49.82
75815;BME280;64451;45.574;14.224;2023-02-28T12:34:41;97387.44;;;6.44;51.09
75815;BME280;64451;45.574;14.224;2023-02-28T12:36:43;97397.25;;;6.61;51.69
75815;BME280;64451;45.574;14.224;2023-02-28T12:38:47;97401.19;;;6.97;51.36
75815;BME280;64451;45.574;14.224;2023-02-28T12:40:56;97402.09;;;7.08;51.51
75815;BME280;64451;45.574;14.224;2023-02-28T12:43:02;97390.28;;;7.30;50.35
75815;BME280;64451;45.574;14.224;2023-02-28T12:45:20;97393.97;;;7.24;51.64
75815;BME280;64451;45.574;14.224;2023-02-28T12:47:21;97383.63;;;7.06;50.20
75815;BME280;64451;45.574;14.224;2023-02-28T12:49:28;97394.63;;;7.10;51.77
75815;BME280;64451;45.574;14.224;2023-02-28T12:51:31;97390.94;;;7.16;52.48
75815;BME280;64451;45.574;14.224;2023-02-28T12:54:20;97375.50;;;7.23;50.56
75815;BME280;64451;45.574;14.224;2023-02-28T12:58:50;97378.97;;;6.96;51.53
75815;BME280;64451;45.574;14.224;2023-02-28T13:08:20;97383.66;;;6.40;53.21
75815;BME280;64451;45.574;14.224;2023-02-28T13:10:47;97388.22;;;6.23;52.74
75815;BME280;64451;45.574;14.224;2023-02-28T13:12:54;97378.59;;;6.44;53.18